Time;durP1;ratioP1;P1;durP2;ratioP2;P2;SDS_P1;SDS_P2;PMS_P1;PMS_P2;Temp;Humidity;BMP_temperature;BMP_pressure;BME280_temperature;BME280_humidity;BME280_pressure;Samples;Min_cycle;Max_cycle;Signal;HPM_P1;HPM_P2
2022/08/16 05:37:43;;;;;;;4.72;4.22;;;19.60;99.90;;;;;;1925028;73;22844;-80
2022/08/16 05:40:48;;;;;;;4.78;4.28;;;19.70;99.90;;;;;;1879749;75;21134;-82
2022/08/16 05:43:45;;;;;;;6.15;4.53;;;19.80;99.90;;;;;;1879102;75;21429;-81
2022/08/16 05:46:45;;;;;;;5.97;4.42;;;19.80;99.90;;;;;;1888469;75;21233;-81
2022/08/16 05:49:38;;;;;;;7.58;4.40;;;19.80;99.90;;;;;;1873242;75;21178;-78
2022/08/16 05:52:32;;;;;;;5.28;4.50;;;19.80;99.90;;;;;;1889438;75;21547;-79
2022/08/16 05:55:25;;;;;;;5.75;4.83;;;19.70;99.90;;;;;;1895547;75;21102;-82
2022/08/16 05:58:19;;;;;;;9.08;4.25;;;19.80;99.90;;;;;;1886089;75;21048;-82
2022/08/16 06:01:13;;;;;;;6.78;4.55;;;19.90;99.90;;;;;;1884449;75;21177;-83
2022/08/16 06:06:48;;;;;;;8.38;4.35;;;20.00;99.90;;;;;;1930783;72;22193;-80
2022/08/16 06:09:41;;;;;;;5.53;4.08;;;20.10;99.90;;;;;;1908861;75;21514;-80
2022/08/16 06:12:36;;;;;;;7.53;4.40;;;20.20;99.90;;;;;;1911716;75;21628;-81
2022/08/16 06:15:28;;;;;;;6.30;4.83;;;20.10;99.90;;;;;;1905864;75;21142;-80
2022/08/16 06:18:21;;;;;;;4.87;3.98;;;20.10;99.90;;;;;;1901666;75;21487;-81
2022/08/16 06:21:18;;;;;;;6.00;4.22;;;20.00;99.90;;;;;;1907681;74;21099;-81
2022/08/16 06:26:51;;;;;;;5.65;4.30;;;20.10;99.90;;;;;;1943408;72;22158;-80
2022/08/16 06:32:23;;;;;;;5.80;4.78;;;20.20;99.90;;;;;;1936554;72;22221;-80
2022/08/16 06:35:18;;;;;;;6.28;4.42;;;20.30;99.90;;;;;;1908856;75;21074;-81
2022/08/16 06:38:23;;;;;;;6.00;5.08;;;20.40;99.90;;;;;;1899942;75;21066;-80
2022/08/16 06:41:21;;;;;;;6.20;4.25;;;20.40;99.90;;;;;;1902049;75;21574;-79
2022/08/16 06:44:14;;;;;;;5.75;4.53;;;20.50;99.90;;;;;;1895352;75;21164;-79
2022/08/16 06:49:48;;;;;;;5.22;4.40;;;20.50;99.90;;;;;;1952270;72;22130;-80
2022/08/16 06:55:23;;;;;;;5.70;4.35;;;20.60;99.90;;;;;;1942681;72;22193;-88
2022/08/16 06:58:17;;;;;;;7.15;6.45;;;20.80;99.90;;;;;;1913542;74;21118;-83
2022/08/16 07:01:13;;;;;;;6.72;4.25;;;20.90;99.90;;;;;;1906879;74;21128;-81
2022/08/16 07:04:08;;;;;;;4.70;4.22;;;20.80;99.90;;;;;;1923549;74;21050;-86
2022/08/16 07:07:01;;;;;;;6.85;4.37;;;20.80;99.90;;;;;;1907633;74;21062;-86
2022/08/16 07:09:53;;;;;;;7.47;4.35;;;20.90;99.90;;;;;;1907952;74;21099;-86
2022/08/16 07:15:26;;;;;;;7.08;4.67;;;21.10;99.90;;;;;;1950966;72;22250;-86
2022/08/16 07:18:19;;;;;;;5.55;4.47;;;21.20;99.90;;;;;;1923041;73;21164;-85
2022/08/16 07:23:51;;;;;;;5.55;4.55;;;21.30;99.90;;;;;;1945435;72;22208;-84
2022/08/16 07:26:44;;;;;;;6.50;4.33;;;21.40;99.90;;;;;;1890183;75;21812;-70
2022/08/16 07:29:38;;;;;;;5.17;4.45;;;21.50;99.90;;;;;;1893546;75;21103;-70
2022/08/16 07:32:31;;;;;;;4.65;4.20;;;21.60;99.90;;;;;;1887613;75;21092;-72
2022/08/16 07:38:06;;;;;;;5.92;4.75;;;21.80;99.90;;;;;;1918312;72;22105;-71
2022/08/16 07:41:08;;;;;;;6.10;4.60;;;21.90;99.90;;;;;;1899138;75;21125;-69
2022/08/16 07:44:02;;;;;;;5.95;4.30;;;22.00;99.90;;;;;;1907617;75;21538;-71
2022/08/16 07:46:56;;;;;;;5.75;4.20;;;22.00;99.90;;;;;;1903762;75;21119;-70
2022/08/16 07:49:49;;;;;;;6.00;4.58;;;22.10;99.90;;;;;;1913735;75;21088;-70
2022/08/16 07:52:45;;;;;;;5.47;4.30;;;22.10;99.90;;;;;;1912004;74;21058;-70
2022/08/16 07:55:45;;;;;;;5.20;4.70;;;22.10;99.90;;;;;;1881590;74;21103;-69
2022/08/16 08:01:30;;;;;;;7.53;4.47;;;22.30;99.90;;;;;;1942026;72;22502;-68
2022/08/16 08:04:22;;;;;;;6.15;4.30;;;22.40;99.90;;;;;;1932782;73;21050;-68
2022/08/16 08:07:13;;;;;;;5.05;4.58;;;22.50;99.90;;;;;;1921848;73;21087;-76
2022/08/16 08:10:09;;;;;;;8.63;6.42;;;22.50;99.90;;;;;;1933566;73;21212;-81
2022/08/16 08:13:03;;;;;;;6.87;4.90;;;22.60;99.90;;;;;;1926517;73;21550;-70
2022/08/16 08:15:54;;;;;;;5.58;4.78;;;22.70;99.90;;;;;;1931297;73;21229;-70
2022/08/16 08:18:45;;;;;;;5.47;4.55;;;22.80;99.90;;;;;;1935347;73;21105;-70
2022/08/16 08:21:40;;;;;;;5.87;4.67;;;22.90;99.90;;;;;;1928164;73;21511;-70
2022/08/16 08:24:36;;;;;;;5.15;4.17;;;23.00;99.90;;;;;;1929463;73;21119;-70
2022/08/16 08:27:26;;;;;;;6.00;4.28;;;23.10;99.90;;;;;;1925036;73;21059;-70
2022/08/16 08:30:22;;;;;;;6.40;4.50;;;23.30;99.90;;;;;;1931438;73;21054;-69
2022/08/16 08:33:26;;;;;;;6.65;4.42;;;23.30;99.90;;;;;;1935710;73;21188;-70
2022/08/16 08:38:59;;;;;;;5.75;4.72;;;23.50;99.90;;;;;;1947591;72;22105;-74
2022/08/16 08:41:51;;;;;;;8.68;4.53;;;23.50;99.90;;;;;;1915636;74;21169;-72
2022/08/16 08:44:44;;;;;;;6.53;4.37;;;23.70;99.90;;;;;;1910520;75;21176;-73
2022/08/16 08:47:55;;;;;;;7.45;4.53;;;23.80;99.90;;;;;;1904129;75;21756;-70
2022/08/16 08:53:37;;;;;;;4.87;4.22;;;24.00;99.90;;;;;;1923507;72;22320;-70
2022/08/16 08:56:29;;;;;;;4.15;3.77;;;24.10;99.90;;;;;;1922428;73;21062;-70
2022/08/16 08:59:23;;;;;;;4.30;4.00;;;24.20;99.90;;;;;;1898266;75;21114;-70
2022/08/16 09:08:05;;;;;;;7.72;4.37;;;24.40;99.90;;;;;;1929878;72;22165;-70
2022/08/16 09:11:05;;;;;;;5.25;4.08;;;24.50;99.90;;;;;;1931939;72;21154;-70
2022/08/16 09:13:59;;;;;;;5.37;4.30;;;24.60;99.90;;;;;;1946889;72;21110;-69
2022/08/16 09:16:51;;;;;;;8.15;4.12;;;24.70;99.90;;;;;;1934870;72;21228;-69
2022/08/16 09:19:43;;;;;;;7.83;4.40;;;24.90;99.90;;;;;;1928551;73;21498;-69
2022/08/16 09:22:36;;;;;;;8.33;4.50;;;24.90;99.90;;;;;;1945913;73;21047;-70
2022/08/16 09:25:29;;;;;;;8.88;4.17;;;25.00;99.90;;;;;;1928729;73;21103;-77
2022/08/16 09:31:03;;;;;;;11.65;4.83;;;25.10;99.90;;;;;;1939431;72;22509;-79
2022/08/16 09:33:54;;;;;;;5.87;4.70;;;25.20;99.90;;;;;;1891010;75;21510;-84
2022/08/16 09:36:56;;;;;;;7.20;5.03;;;25.40;99.90;;;;;;1886134;75;21248;-78
2022/08/16 09:39:50;;;;;;;8.73;4.65;;;25.50;99.90;;;;;;1898492;75;21092;-81
2022/08/16 09:42:44;;;;;;;8.70;4.10;;;25.60;99.90;;;;;;1898001;75;21160;-71
2022/08/16 09:45:39;;;;;;;11.75;4.65;;;25.70;99.90;;;;;;1899689;75;21579;-69
2022/08/16 09:48:32;;;;;;;5.20;4.00;;;25.80;99.90;;;;;;1893920;75;21579;-72
2022/08/16 09:51:25;;;;;;;10.43;4.28;;;25.90;99.90;;;;;;1889163;75;21055;-71
2022/08/16 09:54:18;;;;;;;7.42;4.25;;;26.00;99.90;;;;;;1894844;75;21102;-71
2022/08/16 09:57:23;;;;;;;7.85;4.30;;;26.10;99.90;;;;;;1896673;75;21066;-72
2022/08/16 10:02:56;;;;;;;5.67;4.85;;;26.20;99.90;;;;;;1930672;72;22149;-70
2022/08/16 10:05:48;;;;;;;6.22;4.37;;;26.30;99.90;;;;;;1899393;75;21220;-70
2022/08/16 10:08:40;;;;;;;6.05;4.40;;;26.40;99.90;;;;;;1898887;75;21135;-70
2022/08/16 10:14:44;;;;;;;4.70;4.03;;;26.60;99.90;;;;;;1892753;75;21054;-70
2022/08/16 10:17:41;;;;;;;7.55;4.33;;;26.80;99.90;;;;;;1906638;75;21126;-70
2022/08/16 10:20:28;;;;;;;8.68;4.25;;;26.90;99.90;;;;;;1893131;75;21751;-70
2022/08/16 10:23:21;;;;;;;4.75;3.72;;;27.00;99.90;;;;;;1895521;75;21608;-70
2022/08/16 10:26:14;;;;;;;5.33;3.60;;;27.10;99.90;;;;;;1901752;75;21098;-88
2022/08/16 10:29:07;;;;;;;5.08;4.33;;;27.20;99.90;;;;;;1892634;75;21144;-70
2022/08/16 10:32:00;;;;;;;5.22;3.75;;;27.30;99.90;;;;;;1897769;75;21067;-70
2022/08/16 10:34:53;;;;;;;4.10;3.70;;;27.30;99.90;;;;;;1891977;75;21062;-70
2022/08/16 10:37:46;;;;;;;4.78;3.80;;;27.30;99.90;;;;;;1902103;75;21091;-69
2022/08/16 10:40:39;;;;;;;6.10;3.95;;;27.40;99.90;;;;;;1897782;75;21099;-70
2022/08/16 10:43:32;;;;;;;4.37;3.70;;;27.50;99.90;;;;;;1892775;75;21094;-70
2022/08/16 10:46:23;;;;;;;4.97;3.70;;;27.50;99.90;;;;;;1889248;75;21096;-71
2022/08/16 10:49:23;;;;;;;4.10;3.70;;;27.60;99.90;;;;;;1910802;75;21174;-71
2022/08/16 10:52:16;;;;;;;6.22;3.87;;;27.70;99.90;;;;;;1900822;75;21097;-70
2022/08/16 10:55:11;;;;;;;4.80;3.87;;;27.90;99.90;;;;;;1888407;75;21062;-70
2022/08/16 10:58:07;;;;;;;4.22;3.83;;;28.00;99.90;;;;;;1886078;75;21207;-70
2022/08/16 11:03:39;;;;;;;5.67;3.72;;;28.10;99.90;;;;;;1932368;72;22132;-70
2022/08/16 11:06:32;;;;;;;4.62;3.65;;;28.10;99.90;;;;;;1910153;73;21047;-86
2022/08/16 11:09:25;;;;;;;4.92;3.80;;;28.10;99.90;;;;;;1909785;74;21585;-88
2022/08/16 11:12:18;;;;;;;4.40;3.92;;;28.20;99.90;;;;;;1897726;75;21185;-88
2022/08/16 11:15:11;;;;;;;4.60;3.75;;;28.20;99.90;;;;;;1897948;75;21090;-88
2022/08/16 11:18:05;;;;;;;4.80;3.98;;;28.30;99.90;;;;;;1892742;75;21184;-89
2022/08/16 11:20:59;;;;;;;3.80;3.50;;;28.40;99.90;;;;;;1907439;73;21174;-87
2022/08/16 11:23:52;;;;;;;4.58;3.92;;;28.50;99.90;;;;;;1906075;75;21096;-87
2022/08/16 11:26:45;;;;;;;4.22;3.83;;;28.60;99.90;;;;;;1920975;73;21171;-88
2022/08/16 11:29:37;;;;;;;8.43;3.92;;;28.60;99.90;;;;;;1889094;75;21213;-86
2022/08/16 11:32:30;;;;;;;6.17;3.72;;;28.70;99.90;;;;;;1917040;73;21115;-88
2022/08/16 11:35:26;;;;;;;4.40;3.75;;;28.90;99.90;;;;;;1894399;73;21532;-87
2022/08/16 11:38:21;;;;;;;5.95;3.37;;;29.10;99.90;;;;;;1920720;73;21123;-87
2022/08/16 11:41:17;;;;;;;3.98;3.60;;;29.10;99.70;;;;;;1915487;73;21138;-87
2022/08/16 11:44:10;;;;;;;3.75;3.22;;;29.10;99.00;;;;;;1877273;75;21071;-87
2022/08/16 11:47:03;;;;;;;5.22;3.87;;;29.20;98.80;;;;;;1902711;73;21170;-87
2022/08/16 11:49:55;;;;;;;5.12;3.50;;;29.40;98.70;;;;;;1902484;75;21125;-87
2022/08/16 11:52:46;;;;;;;7.12;3.95;;;29.50;98.60;;;;;;1900727;75;21157;-87
2022/08/16 11:55:41;;;;;;;5.97;3.87;;;29.60;98.30;;;;;;1891817;73;21099;-87
2022/08/16 11:58:34;;;;;;;6.67;4.03;;;29.70;98.30;;;;;;1906656;75;21685;-88
2022/08/16 12:01:25;;;;;;;6.95;4.00;;;29.80;98.00;;;;;;1906022;73;21140;-87
2022/08/16 12:04:19;;;;;;;4.45;4.05;;;29.90;98.20;;;;;;1888180;75;21096;-87
2022/08/16 12:07:12;;;;;;;5.62;3.92;;;30.00;97.70;;;;;;1920881;73;21620;-87
2022/08/16 12:10:08;;;;;;;6.72;3.62;;;30.00;97.60;;;;;;1892734;75;21544;-87
2022/08/16 12:13:00;;;;;;;5.28;3.42;;;30.10;97.70;;;;;;1892592;74;21186;-87
2022/08/16 12:15:53;;;;;;;6.58;4.03;;;30.20;96.20;;;;;;1911159;73;21575;-88
2022/08/16 12:18:47;;;;;;;4.12;3.00;;;30.30;95.80;;;;;;1895759;73;21523;-87
2022/08/16 12:21:39;;;;;;;4.53;3.40;;;30.40;95.10;;;;;;1895846;73;21562;-87
2022/08/16 12:24:32;;;;;;;5.33;3.30;;;30.60;94.20;;;;;;1894526;74;21652;-86
2022/08/16 12:27:26;;;;;;;3.55;3.12;;;30.70;93.20;;;;;;1915117;73;21070;-87
2022/08/16 12:30:22;;;;;;;3.40;3.10;;;30.80;92.50;;;;;;1909595;74;21064;-87
2022/08/16 12:33:17;;;;;;;4.58;3.47;;;30.90;92.00;;;;;;1892121;75;21556;-87
2022/08/16 12:36:10;;;;;;;5.08;3.20;;;31.00;91.60;;;;;;1881482;74;21079;-87
2022/08/16 12:39:04;;;;;;;3.83;3.20;;;31.10;90.20;;;;;;1897410;75;21491;-87
2022/08/16 12:41:57;;;;;;;5.67;3.42;;;31.20;90.00;;;;;;1893074;74;21045;-86
2022/08/16 12:44:57;;;;;;;4.75;3.40;;;31.40;89.00;;;;;;1906295;75;21098;-87
2022/08/16 12:50:59;;;;;;;3.90;3.30;;;31.50;86.80;;;;;;1892896;74;21192;-87
2022/08/16 12:53:53;;;;;;;3.50;3.08;;;31.60;87.10;;;;;;1889935;74;21092;-87
2022/08/16 12:56:45;;;;;;;5.15;3.30;;;31.70;86.50;;;;;;1921792;73;21047;-87
2022/08/16 12:59:37;;;;;;;4.83;3.20;;;31.60;86.40;;;;;;1899930;73;21630;-86
2022/08/16 13:02:30;;;;;;;4.22;2.77;;;31.50;86.60;;;;;;1917788;73;21212;-86
2022/08/16 13:05:28;;;;;;;3.35;2.83;;;31.60;84.50;;;;;;1906597;74;21190;-87
2022/08/16 13:08:21;;;;;;;4.87;2.90;;;31.70;84.70;;;;;;1919023;74;21106;-87
2022/08/16 13:11:15;;;;;;;6.10;3.10;;;31.80;85.50;;;;;;1915745;73;21119;-87
2022/08/16 13:14:08;;;;;;;3.85;3.40;;;31.60;84.70;;;;;;1913806;74;21102;-87
2022/08/16 13:17:01;;;;;;;3.30;3.00;;;31.40;84.60;;;;;;1906183;73;21091;-87
2022/08/16 13:22:37;;;;;;;5.62;3.30;;;31.00;84.60;;;;;;1935454;72;22154;-86
2022/08/16 13:25:40;;;;;;;3.85;2.77;;;31.00;85.30;;;;;;1874231;75;21173;-86
2022/08/16 13:28:31;;;;;;;3.70;3.15;;;31.10;85.30;;;;;;1883495;75;21114;-87
2022/08/16 13:31:23;;;;;;;3.90;3.00;;;31.00;85.10;;;;;;1885308;75;21121;-87
2022/08/16 13:34:16;;;;;;;4.35;3.25;;;31.00;84.80;;;;;;1874418;75;21144;-86
2022/08/16 13:37:14;;;;;;;3.75;3.42;;;30.90;85.30;;;;;;1889820;75;21075;-87
2022/08/16 13:40:10;;;;;;;7.87;3.37;;;30.90;85.20;;;;;;1875477;75;21114;-87
2022/08/16 13:45:48;;;;;;;7.28;3.35;;;31.00;86.40;;;;;;1941600;72;22122;-85
2022/08/16 13:48:41;;;;;;;4.53;3.52;;;30.90;85.70;;;;;;1903979;75;21102;-86
2022/08/16 13:51:33;;;;;;;3.65;3.35;;;30.80;85.80;;;;;;1899050;75;21118;-86
2022/08/16 13:54:26;;;;;;;3.50;2.80;;;30.70;85.90;;;;;;1905961;75;21159;-86
2022/08/16 13:57:19;;;;;;;3.65;3.22;;;30.70;85.80;;;;;;1897619;75;21144;-87
2022/08/16 14:00:16;;;;;;;3.50;3.20;;;30.70;86.00;;;;;;1895351;75;21113;-87
2022/08/16 14:03:12;;;;;;;7.42;3.40;;;30.60;86.50;;;;;;1900361;75;21518;-87
2022/08/16 14:06:05;;;;;;;3.05;2.80;;;30.50;87.50;;;;;;1895003;75;21064;-86
2022/08/16 14:09:02;;;;;;;3.40;3.02;;;30.40;87.50;;;;;;1876491;75;21058;-86
2022/08/16 14:11:56;;;;;;;4.85;3.33;;;30.40;88.30;;;;;;1882031;75;21134;-86
2022/08/16 14:14:49;;;;;;;3.33;2.95;;;30.40;88.40;;;;;;1892036;75;21121;-85
2022/08/16 14:17:43;;;;;;;3.60;3.30;;;30.50;88.60;;;;;;1891213;75;21106;-86
2022/08/16 14:20:38;;;;;;;5.08;4.12;;;30.70;88.10;;;;;;1897393;75;21205;-86
2022/08/16 14:26:15;;;;;;;4.20;3.50;;;31.00;89.00;;;;;;1926928;72;28436;-85
2022/08/16 14:29:08;;;;;;;5.10;3.60;;;31.20;88.20;;;;;;1923009;73;21752;-85
2022/08/16 14:31:59;;;;;;;5.45;3.45;;;32.40;87.60;;;;;;1917540;73;21601;-75
2022/08/16 14:34:51;;;;;;;3.80;3.17;;;33.80;85.30;;;;;;1918727;73;21097;-76
2022/08/16 14:37:44;;;;;;;3.50;3.12;;;34.60;82.50;;;;;;1920752;73;21109;-77
2022/08/16 14:40:36;;;;;;;8.95;3.45;;;34.80;80.70;;;;;;1919589;73;21196;-75
2022/08/16 14:43:28;;;;;;;4.45;3.30;;;34.00;80.60;;;;;;1923371;73;21141;-76
2022/08/16 14:46:20;;;;;;;4.15;3.30;;;33.30;81.30;;;;;;1920273;73;21070;-76
2022/08/16 14:49:13;;;;;;;5.17;3.60;;;32.70;82.00;;;;;;1924473;73;21502;-75
2022/08/16 14:52:14;;;;;;;3.90;3.37;;;32.20;82.80;;;;;;1923078;73;21097;-76
2022/08/16 14:55:14;;;;;;;5.03;3.08;;;31.90;83.80;;;;;;1934890;73;21491;-75
2022/08/16 14:58:07;;;;;;;3.50;3.20;;;31.70;85.10;;;;;;1917107;75;21192;-75
2022/08/16 15:01:00;;;;;;;4.83;3.55;;;31.50;84.50;;;;;;1917105;75;21648;-75
2022/08/16 15:03:53;;;;;;;4.37;3.12;;;31.50;84.00;;;;;;1921518;73;21133;-76
2022/08/16 15:06:45;;;;;;;3.25;3.00;;;31.50;84.50;;;;;;1916889;75;21111;-76
2022/08/16 15:09:37;;;;;;;4.37;3.62;;;31.50;84.50;;;;;;1924170;73;21591;-77
2022/08/16 15:12:33;;;;;;;3.58;3.25;;;31.60;84.70;;;;;;1917490;73;21059;-76
2022/08/16 15:15:27;;;;;;;4.95;3.47;;;32.60;83.00;;;;;;1920472;73;21237;-77
2022/08/16 15:18:19;;;;;;;3.83;3.42;;;32.20;84.00;;;;;;1917315;73;21063;-76
2022/08/16 15:21:12;;;;;;;4.03;3.27;;;31.80;85.90;;;;;;1922744;73;21095;-75
2022/08/16 15:24:05;;;;;;;3.58;3.27;;;31.50;86.90;;;;;;1920436;73;21125;-77
2022/08/16 15:26:57;;;;;;;4.85;3.70;;;31.40;87.50;;;;;;1917183;74;21125;-76
2022/08/16 15:29:49;;;;;;;5.00;3.50;;;31.50;88.30;;;;;;1917219;73;21210;-74
2022/08/16 15:32:46;;;;;;;4.10;3.62;;;31.60;88.00;;;;;;1921677;73;21070;-75
2022/08/16 15:35:41;;;;;;;4.22;3.70;;;31.70;87.90;;;;;;1917143;75;21264;-77
2022/08/16 15:38:37;;;;;;;4.80;3.30;;;31.70;87.70;;;;;;1920907;73;21103;-76
2022/08/16 15:41:59;;;;;;;6.28;3.45;;;31.40;86.70;;;;;;1923087;73;21043;-75
2022/08/16 15:45:11;;;;;;;4.47;3.00;;;32.60;84.70;;;;;;1917469;73;21120;-76
2022/08/16 15:48:03;;;;;;;4.53;3.45;;;34.30;82.10;;;;;;1917318;73;21121;-75
2022/08/16 15:50:59;;;;;;;4.00;3.58;;;35.10;78.90;;;;;;1920893;73;21236;-78
2022/08/16 15:53:51;;;;;;;4.15;3.58;;;35.60;77.50;;;;;;1920769;73;21117;-78
2022/08/16 15:56:44;;;;;;;8.18;3.95;;;35.10;77.90;;;;;;1924145;73;21575;-75
2022/08/16 15:59:36;;;;;;;4.50;3.70;;;34.90;79.00;;;;;;1916536;75;21102;-78
2022/08/16 16:02:29;;;;;;;4.58;3.52;;;35.30;77.60;;;;;;1920897;73;21154;-76
2022/08/16 16:07:59;;;;;;;4.83;4.00;;;33.90;80.60;;;;;;1936556;72;22098;-78
2022/08/16 16:10:54;;;;;;;4.55;3.90;;;33.70;80.90;;;;;;1938931;73;21140;-78
2022/08/16 16:16:36;;;;;;;4.17;3.77;;;32.90;83.40;;;;;;1943834;72;22581;-75
2022/08/16 16:19:34;;;;;;;6.08;4.10;;;33.00;83.90;;;;;;1960424;72;21139;-77
2022/08/16 16:22:26;;;;;;;4.00;3.60;;;33.50;83.40;;;;;;1958522;72;21098;-79
2022/08/16 16:28:00;;;;;;;6.37;4.10;;;35.30;80.00;;;;;;1936271;72;22180;-77
2022/08/16 16:30:58;;;;;;;4.90;3.95;;;36.00;78.10;;;;;;1927916;73;21257;-76
2022/08/16 16:33:54;;;;;;;4.03;3.62;;;36.40;76.60;;;;;;1941824;73;21135;-79
2022/08/16 16:36:46;;;;;;;4.47;3.92;;;36.30;75.50;;;;;;1934512;73;21137;-78
2022/08/16 16:42:20;;;;;;;3.95;3.60;;;35.60;75.60;;;;;;1926113;72;22214;-77
2022/08/16 16:45:12;;;;;;;5.58;3.85;;;35.10;75.70;;;;;;1900690;75;21102;-78
2022/08/16 16:48:05;;;;;;;5.75;3.33;;;33.80;78.10;;;;;;1888033;75;21398;-77
2022/08/16 16:51:01;;;;;;;5.92;3.87;;;32.90;79.40;;;;;;1894175;75;21102;-75
2022/08/16 16:54:11;;;;;;;4.90;3.70;;;32.40;81.40;;;;;;1898667;75;21138;-82
2022/08/16 16:57:04;;;;;;;4.45;3.75;;;32.10;83.10;;;;;;1895601;75;21054;-79
2022/08/16 17:02:35;;;;;;;4.95;3.95;;;31.50;85.80;;;;;;1939130;72;22127;-82
2022/08/16 17:05:38;;;;;;;7.58;4.20;;;31.30;86.10;;;;;;1936321;73;21127;-80
2022/08/16 17:08:40;;;;;;;7.80;4.20;;;31.20;86.00;;;;;;1947977;73;21081;-84
2022/08/16 17:11:43;;;;;;;5.47;3.98;;;31.10;87.00;;;;;;1949384;72;21043;-85
2022/08/16 17:14:36;;;;;;;4.37;3.75;;;31.00;87.70;;;;;;1932065;73;21117;-85
2022/08/16 17:17:35;;;;;;;5.28;3.65;;;30.80;89.10;;;;;;1944573;73;21132;-86
2022/08/16 17:23:08;;;;;;;4.10;3.70;;;30.50;90.80;;;;;;1943568;72;22185;-86
2022/08/16 17:25:59;;;;;;;6.87;4.20;;;30.50;90.80;;;;;;1908004;74;21125;-73
2022/08/16 17:28:51;;;;;;;6.65;4.10;;;30.50;90.80;;;;;;1905238;74;21116;-74
2022/08/16 17:31:44;;;;;;;5.12;4.20;;;30.50;91.00;;;;;;1906943;74;21098;-74
2022/08/16 17:34:44;;;;;;;5.50;4.05;;;30.60;91.00;;;;;;1917396;75;21095;-74
2022/08/16 17:37:38;;;;;;;6.62;3.58;;;30.70;90.90;;;;;;1913417;74;21113;-74
2022/08/16 17:40:42;;;;;;;5.35;4.00;;;30.90;90.60;;;;;;1947259;73;21104;-73
2022/08/16 17:43:45;;;;;;;4.62;3.58;;;31.20;90.30;;;;;;1909951;74;21147;-72
2022/08/16 17:49:49;;;;;;;4.17;3.45;;;30.90;89.10;;;;;;1926749;73;21565;-77
2022/08/16 17:52:41;;;;;;;5.17;3.37;;;30.90;87.20;;;;;;1921385;74;21228;-76
2022/08/16 17:55:36;;;;;;;6.85;3.85;;;30.80;86.70;;;;;;1919029;73;21121;-75
2022/08/16 17:58:28;;;;;;;4.75;3.62;;;30.80;88.90;;;;;;1907375;74;21342;-75
2022/08/16 18:01:22;;;;;;;5.80;3.72;;;30.70;90.00;;;;;;1921397;73;21117;-76
2022/08/16 18:04:18;;;;;;;4.67;3.60;;;30.60;90.10;;;;;;1909988;74;21220;-78
2022/08/16 18:07:12;;;;;;;4.30;3.72;;;30.40;88.60;;;;;;1913946;74;21118;-81
2022/08/16 18:10:04;;;;;;;5.37;4.15;;;30.30;87.70;;;;;;1928905;73;21115;-77
2022/08/16 18:12:56;;;;;;;5.95;3.58;;;30.10;87.60;;;;;;1930083;73;21163;-76
2022/08/16 18:15:50;;;;;;;5.67;3.85;;;30.10;87.10;;;;;;1919717;74;21146;-78
2022/08/16 18:18:45;;;;;;;4.40;3.40;;;30.00;86.60;;;;;;1914949;74;21079;-77
2022/08/16 18:24:55;;;;;;;4.87;3.90;;;29.90;90.00;;;;;;1930611;74;21177;-78
2022/08/16 18:27:49;;;;;;;5.62;3.65;;;29.60;91.10;;;;;;1936847;74;21153;-79
2022/08/16 18:33:20;;;;;;;4.53;3.72;;;29.30;92.60;;;;;;1939644;72;22514;-74
2022/08/16 18:36:11;;;;;;;4.30;3.90;;;29.20;93.10;;;;;;1930077;73;21549;-76
2022/08/16 18:41:45;;;;;;;7.12;3.95;;;28.90;93.50;;;;;;1936795;72;22651;-76
2022/08/16 18:44:48;;;;;;;4.75;3.83;;;28.80;93.80;;;;;;1912047;75;21183;-75
2022/08/16 18:47:47;;;;;;;4.33;3.87;;;28.70;94.10;;;;;;1898869;75;21087;-75
2022/08/16 18:53:19;;;;;;;5.95;4.20;;;28.60;94.60;;;;;;1922800;72;22304;-75
2022/08/16 18:56:09;;;;;;;6.53;3.90;;;28.40;95.10;;;;;;1904014;74;21097;-74
2022/08/16 18:59:00;;;;;;;4.55;4.10;;;28.30;95.80;;;;;;1898139;75;21066;-75
2022/08/16 19:01:52;;;;;;;3.98;3.62;;;28.20;96.40;;;;;;1899535;74;21038;-77
2022/08/16 19:04:44;;;;;;;5.00;3.90;;;28.00;96.80;;;;;;1901155;74;21161;-80
2022/08/16 19:10:20;;;;;;;5.75;4.35;;;27.90;97.60;;;;;;1927703;72;22252;-81
2022/08/16 19:15:55;;;;;;;4.87;3.72;;;27.90;97.40;;;;;;1935393;72;22178;-81
2022/08/16 19:21:24;;;;;;;5.25;4.55;;;28.00;97.50;;;;;;1942772;72;22184;-81
2022/08/16 19:24:15;;;;;;;5.55;4.42;;;28.00;97.80;;;;;;1918989;73;21074;-82
2022/08/16 19:27:09;;;;;;;7.42;4.30;;;27.90;98.00;;;;;;1918851;73;21075;-81
2022/08/16 19:30:01;;;;;;;5.00;4.00;;;27.80;98.30;;;;;;1927330;73;21499;-82
2022/08/16 19:32:55;;;;;;;5.05;4.37;;;27.80;98.40;;;;;;1929421;73;21054;-81
2022/08/16 19:35:46;;;;;;;6.10;4.35;;;27.70;98.70;;;;;;1920586;73;21279;-82
2022/08/16 19:38:37;;;;;;;5.05;4.05;;;27.60;98.60;;;;;;1917369;73;21114;-81
2022/08/16 19:44:11;;;;;;;4.75;3.92;;;27.40;98.90;;;;;;1935391;72;22224;-81
2022/08/16 19:47:02;;;;;;;5.35;4.50;;;27.50;99.20;;;;;;1897674;75;21040;-82
2022/08/16 19:49:54;;;;;;;5.80;4.50;;;27.40;99.50;;;;;;1893287;75;21155;-81
2022/08/16 19:52:47;;;;;;;5.50;4.22;;;27.60;99.50;;;;;;1913007;75;21047;-81
2022/08/16 19:58:21;;;;;;;4.97;4.20;;;27.30;99.20;;;;;;1937102;72;22669;-82
2022/08/16 20:01:14;;;;;;;4.65;3.50;;;27.30;99.30;;;;;;1895714;75;21172;-82
2022/08/16 20:04:21;;;;;;;5.85;4.22;;;27.30;99.30;;;;;;1887548;75;21113;-82
2022/08/16 20:07:16;;;;;;;6.17;4.17;;;27.20;99.50;;;;;;1887088;75;21137;-81
2022/08/16 20:10:10;;;;;;;4.33;3.92;;;27.30;99.60;;;;;;1890326;75;21140;-83
2022/08/16 20:13:01;;;;;;;5.53;4.05;;;27.20;99.70;;;;;;1887048;75;21040;-82
2022/08/16 20:18:33;;;;;;;5.22;4.17;;;27.20;99.90;;;;;;1928912;72;22553;-82
2022/08/16 20:21:32;;;;;;;5.35;4.17;;;27.10;99.90;;;;;;1927096;74;21051;-82
2022/08/16 20:24:24;;;;;;;7.30;4.42;;;27.10;99.90;;;;;;1923488;73;21039;-82
2022/08/16 20:27:18;;;;;;;4.92;4.15;;;27.10;99.90;;;;;;1925208;74;21168;-82
2022/08/16 20:30:14;;;;;;;6.22;4.33;;;27.10;99.90;;;;;;1918992;74;21542;-82
2022/08/16 20:33:12;;;;;;;5.03;4.05;;;27.10;99.90;;;;;;1934542;73;21651;-82
2022/08/16 20:36:03;;;;;;;4.60;4.10;;;27.00;99.90;;;;;;1923206;74;21124;-82
2022/08/16 20:38:58;;;;;;;4.58;4.08;;;26.90;99.90;;;;;;1936833;73;21221;-82
2022/08/16 20:41:48;;;;;;;6.45;3.98;;;27.00;99.90;;;;;;1918835;74;21171;-82
2022/08/16 20:44:39;;;;;;;5.15;3.98;;;27.00;99.90;;;;;;1928374;73;21107;-82
2022/08/16 20:47:31;;;;;;;6.08;4.10;;;27.00;99.90;;;;;;1924102;74;21108;-82
2022/08/16 20:50:22;;;;;;;6.22;4.33;;;27.00;99.90;;;;;;1910013;74;21098;-82
2022/08/16 20:53:13;;;;;;;6.47;4.25;;;27.00;99.90;;;;;;1930345;73;21047;-83
2022/08/16 20:56:06;;;;;;;5.50;4.28;;;26.90;99.90;;;;;;1927537;74;21103;-82
2022/08/16 20:59:05;;;;;;;4.67;4.20;;;26.90;99.90;;;;;;1913246;74;21095;-82
2022/08/16 21:01:58;;;;;;;8.38;4.65;;;26.90;99.90;;;;;;1931173;73;21056;-81
2022/08/16 21:04:49;;;;;;;7.22;4.50;;;26.90;99.90;;;;;;1925613;74;21142;-82
2022/08/16 21:07:41;;;;;;;4.40;3.75;;;26.90;99.90;;;;;;1923544;73;21060;-84
2022/08/16 21:13:13;;;;;;;5.90;4.08;;;26.90;99.90;;;;;;1936094;72;22314;-73
2022/08/16 21:16:05;;;;;;;7.25;4.30;;;26.90;99.90;;;;;;1918638;74;21126;-72
2022/08/16 21:18:56;;;;;;;5.28;4.00;;;26.80;99.90;;;;;;1908125;75;21094;-77
2022/08/16 21:24:28;;;;;;;8.28;4.30;;;26.60;99.90;;;;;;1929251;72;22240;-77
2022/08/16 21:27:22;;;;;;;4.97;3.80;;;26.60;99.90;;;;;;1894893;75;21619;-77
2022/08/16 21:30:15;;;;;;;4.90;4.30;;;26.70;99.90;;;;;;1903043;74;21560;-78
2022/08/16 21:33:19;;;;;;;6.50;3.98;;;26.60;99.90;;;;;;1898661;75;21110;-77
2022/08/16 21:36:12;;;;;;;6.25;4.30;;;26.60;99.90;;;;;;1889413;75;21055;-86
2022/08/16 21:39:05;;;;;;;5.72;4.20;;;26.30;99.90;;;;;;1894025;75;21062;-85
2022/08/16 21:41:56;;;;;;;4.30;3.90;;;26.30;99.90;;;;;;1903293;75;21102;-85
2022/08/16 21:44:48;;;;;;;8.23;3.98;;;26.40;99.90;;;;;;1884808;75;21054;-85
2022/08/16 21:47:40;;;;;;;6.50;3.92;;;26.30;99.90;;;;;;1891467;75;21557;-85
2022/08/16 21:50:44;;;;;;;6.33;3.98;;;26.30;99.90;;;;;;1896092;75;21122;-86
2022/08/16 21:56:14;;;;;;;10.75;4.45;;;26.40;99.90;;;;;;1937653;72;22210;-86
2022/08/16 21:59:16;;;;;;;8.25;4.00;;;26.30;99.90;;;;;;1892863;75;21067;-87
2022/08/16 22:02:07;;;;;;;8.65;4.45;;;26.20;99.90;;;;;;1894363;75;21102;-84
2022/08/16 22:04:59;;;;;;;5.25;3.83;;;26.20;99.90;;;;;;1912077;75;21203;-86
2022/08/16 22:07:57;;;;;;;6.72;4.35;;;26.20;99.90;;;;;;1907305;74;21090;-83
2022/08/16 22:11:00;;;;;;;5.42;4.20;;;26.20;99.90;;;;;;1899578;75;21219;-83
2022/08/16 22:13:55;;;;;;;5.15;4.17;;;26.10;99.90;;;;;;1902919;75;21574;-88
2022/08/16 22:16:48;;;;;;;4.58;4.17;;;26.10;99.90;;;;;;1914575;75;21519;-86
2022/08/16 22:19:40;;;;;;;6.00;4.30;;;25.90;99.90;;;;;;1908091;75;21094;-87
2022/08/16 22:25:13;;;;;;;6.90;4.47;;;25.80;99.90;;;;;;1945261;72;22706;-86
2022/08/16 22:28:05;;;;;;;5.65;4.45;;;25.70;99.90;;;;;;1894743;74;21098;-88
2022/08/16 22:30:57;;;;;;;5.20;4.17;;;25.80;99.90;;;;;;1883650;75;21110;-89
2022/08/16 22:33:48;;;;;;;5.58;4.40;;;25.90;99.90;;;;;;1897052;74;21060;-81
2022/08/16 22:39:19;;;;;;;8.18;4.55;;;25.90;99.90;;;;;;1944473;72;22179;-81